Time;durP1;ratioP1;P1;durP2;ratioP2;P2;SDS_P1;SDS_P2;PMS_P1;PMS_P2;Temp;Humidity;BMP_temperature;BMP_pressure;BME280_temperature;BME280_humidity;BME280_pressure;Samples;Min_cycle;Max_cycle;Signal;HPM_P1;HPM_P2
2024/01/11 00:02:42;;;;;;;0.50;0.50;;;-0.70;90.50;;;;;;10509444;28;20219;-81
2024/01/11 00:07:45;;;;;;;0.40;0.40;;;-0.80;90.70;;;;;;10508046;28;20216;-80
2024/01/11 00:12:48;;;;;;;0.50;0.50;;;-0.80;90.60;;;;;;10507258;28;20188;-80
2024/01/11 00:17:51;;;;;;;0.30;0.30;;;-0.90;90.80;;;;;;10507758;28;20615;-81
2024/01/11 00:22:53;;;;;;;0.30;0.30;;;-0.80;90.80;;;;;;10509762;28;20700;-80
2024/01/11 00:27:57;;;;;;;0.47;0.47;;;-0.80;90.60;;;;;;10513692;28;20689;-81
2024/01/11 00:32:59;;;;;;;0.30;0.30;;;-0.80;90.60;;;;;;10512960;28;20594;-81
2024/01/11 00:38:01;;;;;;;0.30;0.30;;;-0.90;90.70;;;;;;10512099;28;20338;-81
2024/01/11 00:43:05;;;;;;;0.37;0.37;;;-0.80;90.80;;;;;;10494066;28;20228;-80
2024/01/11 00:48:08;;;;;;;0.30;0.30;;;-0.90;90.70;;;;;;10493419;28;20235;-79
2024/01/11 00:53:11;;;;;;;0.40;0.40;;;-0.90;90.90;;;;;;10491979;28;20658;-80
2024/01/11 00:58:14;;;;;;;0.30;0.30;;;-0.90;90.90;;;;;;10507353;28;20212;-81
2024/01/11 01:03:17;;;;;;;0.30;0.30;;;-0.90;91.00;;;;;;10498445;28;20615;-80
2024/01/11 01:08:19;;;;;;;0.30;0.30;;;-1.00;91.10;;;;;;10502309;28;20224;-80
2024/01/11 01:13:23;;;;;;;0.30;0.30;;;-1.00;91.30;;;;;;10501889;28;20215;-79
2024/01/11 01:18:25;;;;;;;0.30;0.30;;;-0.90;91.10;;;;;;10502098;28;20212;-79
2024/01/11 01:23:28;;;;;;;0.30;0.30;;;-0.90;90.90;;;;;;10497295;28;20281;-79
2024/01/11 01:28:32;;;;;;;0.40;0.40;;;-1.00;91.00;;;;;;10488869;28;20228;-80
2024/01/11 01:33:34;;;;;;;0.30;0.30;;;-1.00;91.10;;;;;;10508798;28;20192;-80
2024/01/11 01:38:36;;;;;;;0.40;0.40;;;-1.00;91.20;;;;;;10488582;28;20618;-80
2024/01/11 01:43:42;;;;;;;0.40;0.40;;;-1.10;91.40;;;;;;10484964;28;20220;-79
2024/01/11 01:48:44;;;;;;;0.40;0.40;;;-1.00;91.20;;;;;;10502179;28;20239;-79
2024/01/11 01:53:48;;;;;;;0.30;0.30;;;-1.00;91.30;;;;;;10499359;28;20200;-80
2024/01/11 01:58:54;;;;;;;0.40;0.40;;;-1.00;91.40;;;;;;10497504;28;20289;-79
2024/01/11 02:03:57;;;;;;;0.30;0.30;;;-0.90;91.40;;;;;;10493770;28;20235;-78
2024/01/11 02:09:01;;;;;;;0.30;0.30;;;-0.90;91.00;;;;;;10498772;28;20322;-77
2024/01/11 02:14:05;;;;;;;0.30;0.30;;;-0.90;91.20;;;;;;10498387;28;20670;-78
2024/01/11 02:19:11;;;;;;;0.40;0.40;;;-1.00;91.00;;;;;;10496528;28;20285;-80
2024/01/11 02:24:15;;;;;;;0.40;0.40;;;-1.10;91.10;;;;;;10480088;28;20238;-81
2024/01/11 02:29:18;;;;;;;0.40;0.40;;;-1.10;91.20;;;;;;10518608;28;20273;-78
2024/01/11 02:34:21;;;;;;;0.40;0.40;;;-1.10;91.30;;;;;;10537590;28;20233;-80
2024/01/11 02:39:26;;;;;;;0.40;0.40;;;-1.10;91.40;;;;;;10535927;28;20219;-79
2024/01/11 02:44:28;;;;;;;0.33;0.33;;;-1.20;91.40;;;;;;10536930;28;20216;-79
2024/01/11 02:49:30;;;;;;;0.40;0.40;;;-1.10;91.50;;;;;;10534686;28;20265;-80
2024/01/11 02:54:34;;;;;;;0.40;0.40;;;-1.10;91.30;;;;;;10533578;28;20195;-78
2024/01/11 02:59:37;;;;;;;0.30;0.30;;;-1.10;91.10;;;;;;10534336;28;20227;-77
2024/01/11 03:04:39;;;;;;;0.43;0.43;;;-1.10;91.00;;;;;;10533050;28;20211;-79
2024/01/11 03:09:43;;;;;;;0.40;0.40;;;-1.20;91.20;;;;;;10515368;28;20629;-79
2024/01/11 03:14:46;;;;;;;0.40;0.40;;;-1.20;91.10;;;;;;10531785;28;20261;-79
2024/01/11 03:19:48;;;;;;;0.40;0.40;;;-1.20;91.40;;;;;;10531901;28;20238;-79
2024/01/11 03:24:52;;;;;;;0.50;0.50;;;-1.20;91.20;;;;;;10531598;28;20700;-79
2024/01/11 03:29:55;;;;;;;0.40;0.40;;;-1.30;91.00;;;;;;10508371;28;20212;-79
2024/01/11 03:34:57;;;;;;;0.40;0.40;;;-1.30;91.10;;;;;;10524360;28;20195;-79
2024/01/11 03:40:01;;;;;;;0.50;0.50;;;-1.40;91.10;;;;;;10529691;28;20223;-79
2024/01/11 03:45:05;;;;;;;0.50;0.50;;;-1.40;91.10;;;;;;10529614;28;20226;-77
2024/01/11 03:50:08;;;;;;;0.60;0.60;;;-1.40;90.90;;;;;;10589618;22;20267;-78
2024/01/11 03:55:11;;;;;;;0.40;0.40;;;-1.50;91.30;;;;;;10578972;28;20688;-78
2024/01/11 04:00:15;;;;;;;0.40;0.40;;;-1.50;91.30;;;;;;10498750;28;20213;-79
2024/01/11 04:05:17;;;;;;;0.77;0.77;;;-1.50;91.10;;;;;;10544400;28;20212;-79
2024/01/11 04:10:21;;;;;;;0.73;0.73;;;-1.50;91.30;;;;;;10538727;28;20273;-78
2024/01/11 04:15:23;;;;;;;0.70;0.70;;;-1.50;91.30;;;;;;10535367;28;20261;-78
2024/01/11 04:20:26;;;;;;;0.60;0.60;;;-1.50;91.30;;;;;;10536906;28;20216;-79
2024/01/11 04:25:29;;;;;;;0.70;0.70;;;-1.50;91.10;;;;;;10502033;28;20266;-78
2024/01/11 04:30:32;;;;;;;0.60;0.60;;;-1.50;91.10;;;;;;10534974;28;20200;-78
2024/01/11 04:35:34;;;;;;;0.80;0.80;;;-1.50;91.20;;;;;;10534953;28;20192;-78
2024/01/11 04:40:38;;;;;;;0.80;0.80;;;-1.50;91.50;;;;;;10534271;28;20204;-78
2024/01/11 04:45:40;;;;;;;0.60;0.60;;;-1.60;91.40;;;;;;10532967;28;20216;-78
2024/01/11 04:50:43;;;;;;;0.70;0.70;;;-1.60;91.30;;;;;;10532337;28;20203;-77
2024/01/11 04:55:47;;;;;;;0.60;0.60;;;-1.60;91.50;;;;;;10527544;28;20203;-78
2024/01/11 05:00:50;;;;;;;0.60;0.60;;;-1.50;91.50;;;;;;10530876;28;20253;-78
2024/01/11 05:05:52;;;;;;;0.60;0.60;;;-1.50;91.60;;;;;;10528103;28;20219;-77
2024/01/11 05:10:56;;;;;;;0.50;0.50;;;-1.50;91.40;;;;;;10529350;28;20212;-78
2024/01/11 05:15:58;;;;;;;0.57;0.57;;;-1.40;91.30;;;;;;10509756;28;20212;-78
2024/01/11 05:21:00;;;;;;;1.00;1.00;;;-1.50;91.30;;;;;;10529752;28;20669;-78
2024/01/11 05:26:04;;;;;;;0.60;0.60;;;-1.40;91.30;;;;;;10501543;28;20656;-77
2024/01/11 05:31:08;;;;;;;0.60;0.60;;;-1.40;91.40;;;;;;10527090;28;20197;-78
2024/01/11 05:36:10;;;;;;;0.70;0.70;;;-1.50;91.10;;;;;;10527005;28;20766;-77
2024/01/11 05:41:14;;;;;;;0.37;0.37;;;-1.50;91.10;;;;;;10505163;28;20192;-78
2024/01/11 05:46:16;;;;;;;0.30;0.30;;;-1.60;91.20;;;;;;10503034;28;20216;-78
2024/01/11 05:51:19;;;;;;;0.57;0.57;;;-1.60;91.20;;;;;;10516429;28;20653;-78
2024/01/11 05:56:22;;;;;;;0.73;0.73;;;-1.70;91.20;;;;;;10509566;28;20610;-78
2024/01/11 06:01:25;;;;;;;0.60;0.60;;;-1.60;91.20;;;;;;10521790;28;20200;-78
2024/01/11 06:06:27;;;;;;;0.60;0.60;;;-1.70;91.50;;;;;;10522498;28;20704;-78
2024/01/11 06:11:31;;;;;;;0.60;0.60;;;-1.70;91.40;;;;;;10499246;28;20192;-79
2024/01/11 06:16:33;;;;;;;0.13;0.13;;;-1.70;91.50;;;;;;10497577;28;20201;-78
2024/01/11 06:21:36;;;;;;;0.60;0.60;;;-1.60;91.40;;;;;;10521267;28;20188;-78
2024/01/11 06:26:39;;;;;;;0.60;0.60;;;-1.60;91.20;;;;;;10520572;28;20265;-78
2024/01/11 06:31:42;;;;;;;0.70;0.70;;;-1.70;91.00;;;;;;10524247;28;20203;-78
2024/01/11 06:36:44;;;;;;;0.70;0.70;;;-1.70;91.20;;;;;;10512533;28;20205;-78
2024/01/11 06:41:48;;;;;;;0.60;0.60;;;-1.70;91.40;;;;;;10518259;28;20193;-79
2024/01/11 06:46:51;;;;;;;0.60;0.60;;;-1.70;91.30;;;;;;10497174;28;20362;-78
2024/01/11 06:51:53;;;;;;;0.60;0.60;;;-1.70;91.40;;;;;;10508304;28;20665;-79
2024/01/11 06:56:57;;;;;;;0.50;0.50;;;-1.70;91.60;;;;;;10540915;28;20212;-78
2024/01/11 07:01:59;;;;;;;0.70;0.70;;;-1.70;91.40;;;;;;10510539;28;20252;-79
2024/01/11 07:07:04;;;;;;;0.60;0.60;;;-1.70;91.60;;;;;;10523821;28;20227;-77
2024/01/11 07:12:08;;;;;;;0.60;0.60;;;-1.70;91.40;;;;;;10547958;28;20196;-77
2024/01/11 07:17:10;;;;;;;0.70;0.70;;;-1.70;91.50;;;;;;10496585;28;20208;-78
2024/01/11 07:22:13;;;;;;;0.70;0.70;;;-1.60;91.40;;;;;;10514103;28;20628;-78
2024/01/11 07:27:16;;;;;;;0.10;0.10;;;-1.70;91.20;;;;;;10511804;28;20223;-78
2024/01/11 07:32:19;;;;;;;0.53;0.53;;;-1.70;91.10;;;;;;10510980;28;20655;-79
2024/01/11 07:37:21;;;;;;;0.50;0.50;;;-1.70;91.30;;;;;;10514481;28;20228;-79
2024/01/11 07:42:25;;;;;;;0.50;0.50;;;-1.70;91.60;;;;;;10526363;28;20203;-78
2024/01/11 07:47:27;;;;;;;0.50;0.50;;;-1.60;91.60;;;;;;10523486;28;20433;-77
2024/01/11 07:52:29;;;;;;;0.60;0.60;;;-1.60;91.70;;;;;;10525231;28;20203;-77
2024/01/11 07:57:33;;;;;;;0.50;0.50;;;-1.50;91.30;;;;;;10530339;28;20204;-77
2024/01/11 08:02:37;;;;;;;0.60;0.60;;;-1.50;91.40;;;;;;10529083;28;20237;-78
2024/01/11 08:07:41;;;;;;;0.40;0.40;;;-1.50;91.40;;;;;;10529658;28;20754;-78
2024/01/11 08:12:45;;;;;;;0.40;0.40;;;-1.40;91.20;;;;;;10522277;28;20594;-78
2024/01/11 08:17:48;;;;;;;0.30;0.30;;;-1.40;91.40;;;;;;10501762;28;20274;-79
2024/01/11 08:22:50;;;;;;;0.50;0.50;;;-1.30;91.70;;;;;;10513713;28;20189;-77
2024/01/11 08:27:54;;;;;;;0.50;0.50;;;-1.20;91.60;;;;;;10511944;28;20228;-78
2024/01/11 08:32:57;;;;;;;0.50;0.50;;;-1.10;91.70;;;;;;10513167;28;20570;-78
2024/01/11 08:37:59;;;;;;;0.60;0.60;;;-1.00;91.90;;;;;;10511694;28;20217;-78
2024/01/11 08:43:03;;;;;;;0.40;0.40;;;-0.90;91.80;;;;;;10512023;28;20192;-78
2024/01/11 08:48:06;;;;;;;0.40;0.40;;;-0.90;91.60;;;;;;10518521;28;20227;-78
2024/01/11 08:53:08;;;;;;;0.40;0.40;;;-0.80;91.80;;;;;;10534797;28;20189;-78
2024/01/11 08:58:12;;;;;;;0.60;0.60;;;-0.80;91.70;;;;;;10510476;28;20558;-76
2024/01/11 09:03:16;;;;;;;0.50;0.50;;;-0.70;91.50;;;;;;10501005;28;20200;-78
2024/01/11 09:08:19;;;;;;;0.50;0.50;;;-0.70;91.50;;;;;;10507540;28;20261;-79
2024/01/11 09:13:22;;;;;;;0.47;0.47;;;-0.70;91.50;;;;;;10523559;28;20196;-78
2024/01/11 09:18:25;;;;;;;0.30;0.30;;;-0.60;91.50;;;;;;10498608;28;20217;-77
2024/01/11 09:23:27;;;;;;;0.20;0.20;;;-0.50;91.60;;;;;;10506999;28;20196;-78
2024/01/11 09:28:31;;;;;;;0.40;0.40;;;-0.50;91.50;;;;;;10499282;28;20227;-78
2024/01/11 09:33:33;;;;;;;0.40;0.40;;;-0.40;91.50;;;;;;10505492;28;20273;-78
2024/01/11 09:38:37;;;;;;;0.30;0.30;;;-0.20;91.50;;;;;;10505895;28;20552;-76
2024/01/11 09:43:42;;;;;;;0.40;0.40;;;-0.10;91.70;;;;;;10508500;28;20225;-77
2024/01/11 09:48:47;;;;;;;0.30;0.30;;;0.00;91.40;;;;;;10524687;28;20775;-77
2024/01/11 09:53:52;;;;;;;0.40;0.40;;;0.10;91.20;;;;;;10503184;28;20215;-78
2024/01/11 09:58:56;;;;;;;0.30;0.30;;;0.20;91.40;;;;;;10502057;28;20723;-78
2024/01/11 10:03:58;;;;;;;0.30;0.30;;;0.20;91.10;;;;;;10501705;28;20205;-77
2024/01/11 10:09:01;;;;;;;0.30;0.30;;;0.40;90.40;;;;;;10500403;28;20627;-77
2024/01/11 10:14:05;;;;;;;0.30;0.30;;;0.30;90.50;;;;;;10499936;28;20189;-79
2024/01/11 10:19:13;;;;;;;0.20;0.20;;;0.30;90.60;;;;;;10501825;28;20689;-78
2024/01/11 10:24:20;;;;;;;0.30;0.30;;;0.40;90.70;;;;;;10498854;28;20196;-78
2024/01/11 10:29:28;;;;;;;0.30;0.30;;;0.50;90.70;;;;;;10496293;28;20219;-78
2024/01/11 10:34:31;;;;;;;0.30;0.30;;;0.50;90.70;;;;;;10496357;28;20203;-78
2024/01/11 10:39:35;;;;;;;0.30;0.30;;;0.60;90.10;;;;;;10497822;28;20689;-78
2024/01/11 10:44:44;;;;;;;0.30;0.30;;;0.60;90.40;;;;;;10497458;28;20265;-79
2024/01/11 10:49:49;;;;;;;0.40;0.40;;;0.70;90.30;;;;;;10496060;28;20712;-78
2024/01/11 10:54:52;;;;;;;0.40;0.40;;;0.80;90.00;;;;;;10516180;28;20607;-79
2024/01/11 10:59:57;;;;;;;0.30;0.30;;;0.70;90.50;;;;;;10528487;28;20221;-80
2024/01/11 11:05:03;;;;;;;0.30;0.30;;;0.80;90.70;;;;;;10501595;28;20229;-79
2024/01/11 11:10:09;;;;;;;0.37;0.37;;;0.90;90.50;;;;;;10519144;28;20245;-80
2024/01/11 11:15:13;;;;;;;0.40;0.40;;;1.00;90.40;;;;;;10553926;28;20256;-80
2024/01/11 11:20:16;;;;;;;0.40;0.40;;;1.00;90.40;;;;;;10535424;28;20201;-79
2024/01/11 11:25:25;;;;;;;0.30;0.30;;;1.10;90.30;;;;;;10513048;28;20196;-78
2024/01/11 11:30:29;;;;;;;0.30;0.30;;;1.20;88.60;;;;;;10523776;28;20211;-79
2024/01/11 11:35:32;;;;;;;0.40;0.40;;;1.20;88.90;;;;;;10546095;28;20196;-79
2024/01/11 11:40:39;;;;;;;0.30;0.30;;;1.30;89.10;;;;;;10548153;28;20196;-79
2024/01/11 11:45:43;;;;;;;0.30;0.30;;;1.20;89.50;;;;;;10546470;28;20192;-79
2024/01/11 11:50:47;;;;;;;0.30;0.30;;;1.30;88.70;;;;;;10547155;28;20253;-79
2024/01/11 11:55:51;;;;;;;0.37;0.37;;;1.40;89.00;;;;;;10543991;28;20602;-79
2024/01/11 12:00:56;;;;;;;0.30;0.30;;;1.40;89.10;;;;;;10529801;28;20201;-79
2024/01/11 12:06:00;;;;;;;0.30;0.30;;;1.40;89.60;;;;;;10525265;28;20784;-80
2024/01/11 12:11:02;;;;;;;0.30;0.30;;;1.50;89.80;;;;;;10542666;28;20188;-79
2024/01/11 12:16:06;;;;;;;0.30;0.30;;;1.60;88.80;;;;;;10543773;28;20211;-79
2024/01/11 12:21:09;;;;;;;0.30;0.30;;;1.60;89.60;;;;;;10542323;28;20610;-79
2024/01/11 12:26:12;;;;;;;0.40;0.40;;;1.70;90.00;;;;;;10525311;28;20216;-79
2024/01/11 12:31:19;;;;;;;0.30;0.30;;;1.70;90.10;;;;;;10523738;28;20195;-79
2024/01/11 12:36:21;;;;;;;0.07;0.07;;;1.80;89.60;;;;;;10540437;28;20208;-79
2024/01/11 12:41:24;;;;;;;0.30;0.30;;;1.90;89.90;;;;;;10519883;28;20669;-79
2024/01/11 12:46:28;;;;;;;0.30;0.30;;;1.90;90.00;;;;;;10519430;28;20224;-80
2024/01/11 12:51:31;;;;;;;0.20;0.20;;;2.00;89.60;;;;;;10520426;28;20245;-79
2024/01/11 12:56:33;;;;;;;0.20;0.20;;;2.00;88.40;;;;;;10518507;28;20215;-79
2024/01/11 13:01:38;;;;;;;0.40;0.40;;;2.00;88.30;;;;;;10517478;28;20611;-79
2024/01/11 13:06:41;;;;;;;0.33;0.33;;;2.10;87.90;;;;;;10516902;28;20655;-80
2024/01/11 13:11:43;;;;;;;0.30;0.30;;;2.10;88.20;;;;;;10518804;28;20207;-79
2024/01/11 13:16:48;;;;;;;0.40;0.40;;;2.20;87.70;;;;;;10513414;28;20246;-79
2024/01/11 13:21:52;;;;;;;0.30;0.30;;;2.20;87.10;;;;;;10518151;28;20673;-80
2024/01/11 13:26:55;;;;;;;0.20;0.20;;;2.20;88.00;;;;;;10504901;28;20227;-79
2024/01/11 13:31:59;;;;;;;0.30;0.30;;;2.30;87.80;;;;;;10514230;28;20768;-79
2024/01/11 13:37:02;;;;;;;0.30;0.30;;;2.40;86.80;;;;;;10513362;28;20205;-79
2024/01/11 13:42:09;;;;;;;0.40;0.40;;;2.30;87.60;;;;;;10511497;28;20669;-78
2024/01/11 13:47:13;;;;;;;0.30;0.30;;;2.40;87.90;;;;;;10535394;28;20227;-78
2024/01/11 13:52:15;;;;;;;0.30;0.30;;;2.40;88.00;;;;;;10544408;28;20188;-78
2024/01/11 13:57:17;;;;;;;0.20;0.20;;;2.40;88.20;;;;;;10533229;28;20563;-78
2024/01/11 14:02:21;;;;;;;0.30;0.30;;;2.40;88.70;;;;;;10505926;28;20219;-79
2024/01/11 14:07:23;;;;;;;0.40;0.40;;;2.40;88.60;;;;;;10510452;28;20773;-79
2024/01/11 14:12:26;;;;;;;0.00;0.00;;;2.40;88.20;;;;;;10502369;28;20215;-79
2024/01/11 14:17:29;;;;;;;0.30;0.30;;;2.50;88.50;;;;;;10507238;28;20220;-78
2024/01/11 14:22:32;;;;;;;0.50;0.50;;;2.50;88.40;;;;;;10507058;28;20219;-79
2024/01/11 14:27:34;;;;;;;0.30;0.30;;;2.50;88.90;;;;;;10506434;28;20270;-79
2024/01/11 14:32:38;;;;;;;0.30;0.30;;;2.50;88.80;;;;;;10505183;28;20189;-78
2024/01/11 14:37:41;;;;;;;0.40;0.40;;;2.50;89.60;;;;;;10505096;28;20208;-77
2024/01/11 14:42:44;;;;;;;0.43;0.43;;;2.50;89.00;;;;;;10503417;28;20196;-79
2024/01/11 14:47:48;;;;;;;0.40;0.40;;;2.50;89.30;;;;;;10507492;28;20219;-79
2024/01/11 14:52:50;;;;;;;0.40;0.40;;;2.60;87.70;;;;;;10539273;28;20203;-78
2024/01/11 14:57:52;;;;;;;0.40;0.40;;;2.60;88.80;;;;;;10538426;28;20211;-78
2024/01/11 15:02:56;;;;;;;0.43;0.43;;;2.60;88.70;;;;;;10543136;28;20199;-79
2024/01/11 15:07:59;;;;;;;0.40;0.40;;;2.50;88.70;;;;;;10534406;28;20362;-78
2024/01/11 15:13:01;;;;;;;0.40;0.40;;;2.50;88.70;;;;;;10500806;28;20207;-79
2024/01/11 15:18:05;;;;;;;0.50;0.50;;;2.50;88.80;;;;;;10502379;28;20213;-79
2024/01/11 15:23:08;;;;;;;0.33;0.33;;;2.50;88.60;;;;;;10508998;28;20192;-79
2024/01/11 15:28:11;;;;;;;0.40;0.40;;;2.50;88.90;;;;;;10546507;28;20220;-79
2024/01/11 15:33:14;;;;;;;0.40;0.40;;;2.40;89.00;;;;;;10542378;28;20278;-79
2024/01/11 15:38:17;;;;;;;0.50;0.50;;;2.40;89.00;;;;;;10513188;28;20204;-78
2024/01/11 15:43:19;;;;;;;0.50;0.50;;;2.40;88.80;;;;;;10549910;28;20188;-79
2024/01/11 15:48:24;;;;;;;0.50;0.50;;;2.30;89.30;;;;;;10570160;22;20220;-78
2024/01/11 15:53:26;;;;;;;0.40;0.40;;;2.30;89.70;;;;;;10458037;28;20708;-78
2024/01/11 15:58:29;;;;;;;0.20;0.20;;;2.20;89.30;;;;;;10494016;28;20892;-78
2024/01/11 16:03:32;;;;;;;0.40;0.40;;;2.10;89.20;;;;;;10467299;28;20204;-78
2024/01/11 16:08:35;;;;;;;0.50;0.50;;;1.90;88.80;;;;;;10491807;28;20212;-78
2024/01/11 16:13:39;;;;;;;0.50;0.50;;;1.80;89.40;;;;;;10436426;28;20196;-77
2024/01/11 16:18:43;;;;;;;0.60;0.60;;;1.60;89.60;;;;;;10494239;28;20209;-78
2024/01/11 16:23:45;;;;;;;0.60;0.60;;;1.50;90.10;;;;;;10504196;28;20197;-78
2024/01/11 16:28:48;;;;;;;0.27;0.27;;;1.20;90.10;;;;;;10506135;28;20216;-79
2024/01/11 16:33:53;;;;;;;0.50;0.50;;;1.20;90.40;;;;;;10502071;28;20208;-78
2024/01/11 16:38:55;;;;;;;0.53;0.53;;;1.00;90.50;;;;;;10479574;28;20276;-78
2024/01/11 16:43:58;;;;;;;0.30;0.30;;;0.90;90.50;;;;;;10469399;28;20209;-78
2024/01/11 16:49:02;;;;;;;0.47;0.47;;;0.70;90.70;;;;;;10447087;28;20225;-79
2024/01/11 16:54:04;;;;;;;0.53;0.53;;;0.70;90.80;;;;;;10444616;28;20201;-79
2024/01/11 16:59:07;;;;;;;0.50;0.50;;;0.60;90.80;;;;;;10431372;28;20260;-79
2024/01/11 17:04:11;;;;;;;0.40;0.40;;;0.60;90.80;;;;;;10415617;28;20212;-78
2024/01/11 17:09:13;;;;;;;0.20;0.20;;;0.60;91.00;;;;;;10416458;28;20733;-78
2024/01/11 17:14:16;;;;;;;0.50;0.50;;;0.50;91.20;;;;;;10436399;28;20204;-77
2024/01/11 17:19:20;;;;;;;0.50;0.50;;;0.40;91.20;;;;;;10434721;28;20226;-78
2024/01/11 17:24:22;;;;;;;0.60;0.60;;;0.40;91.10;;;;;;10431579;28;20201;-78
2024/01/11 17:29:25;;;;;;;0.50;0.50;;;0.40;91.20;;;;;;10431949;28;20282;-79
2024/01/11 17:34:29;;;;;;;0.50;0.50;;;0.40;91.40;;;;;;10422691;28;20594;-79
2024/01/11 17:39:33;;;;;;;0.50;0.50;;;0.30;91.30;;;;;;10419439;28;20667;-78
2024/01/11 17:44:36;;;;;;;0.40;0.40;;;0.30;91.40;;;;;;10461676;28;20201;-79
2024/01/11 17:49:41;;;;;;;0.53;0.53;;;0.30;91.30;;;;;;10463649;28;20232;-78
2024/01/11 17:54:43;;;;;;;0.60;0.60;;;0.20;91.40;;;;;;10462573;28;20201;-79
2024/01/11 17:59:46;;;;;;;0.70;0.70;;;0.20;91.30;;;;;;10434714;28;20217;-78
2024/01/11 18:04:50;;;;;;;0.50;0.50;;;0.20;91.40;;;;;;10434422;28;20198;-78
2024/01/11 18:09:53;;;;;;;0.60;0.60;;;0.10;91.30;;;;;;10451974;28;20225;-78
2024/01/11 18:14:56;;;;;;;0.50;0.50;;;0.10;91.30;;;;;;10435902;28;20202;-79
2024/01/11 18:19:59;;;;;;;0.20;0.20;;;0.10;91.30;;;;;;10445564;28;20217;-80
2024/01/11 18:25:02;;;;;;;0.50;0.50;;;0.20;91.40;;;;;;10440726;28;20200;-78
2024/01/11 18:30:06;;;;;;;0.40;0.40;;;0.10;91.20;;;;;;10437525;28;20279;-79
2024/01/11 18:35:10;;;;;;;0.50;0.50;;;0.00;91.30;;;;;;10435322;28;20574;-77
2024/01/11 18:40:12;;;;;;;0.60;0.60;;;-0.10;91.50;;;;;;10453826;28;20210;-79
2024/01/11 18:45:15;;;;;;;0.70;0.70;;;-0.10;91.40;;;;;;10430773;28;20504;-78
2024/01/11 18:50:19;;;;;;;0.50;0.50;;;-0.10;91.40;;;;;;10407858;28;20234;-77
2024/01/11 18:55:21;;;;;;;0.40;0.40;;;-0.10;91.50;;;;;;10420340;28;20697;-78
2024/01/11 19:00:24;;;;;;;0.60;0.60;;;-0.10;91.50;;;;;;10438785;28;20232;-76
2024/01/11 19:05:27;;;;;;;0.50;0.50;;;-0.10;91.50;;;;;;10420810;28;20197;-77
2024/01/11 19:10:30;;;;;;;0.60;0.60;;;-0.10;91.60;;;;;;10418362;28;20221;-77
2024/01/11 19:15:34;;;;;;;0.60;0.60;;;-0.20;91.60;;;;;;10409554;28;20225;-78
2024/01/11 19:20:38;;;;;;;0.60;0.60;;;-0.20;91.70;;;;;;10404859;28;20618;-77
2024/01/11 19:25:41;;;;;;;0.50;0.50;;;-0.20;91.70;;;;;;10421939;28;20205;-77
2024/01/11 19:30:44;;;;;;;0.70;0.70;;;-0.20;91.80;;;;;;10421451;28;20225;-77
2024/01/11 19:35:47;;;;;;;0.50;0.50;;;-0.20;91.70;;;;;;10426883;28;20202;-77
2024/01/11 19:40:50;;;;;;;0.20;0.20;;;-0.20;91.60;;;;;;10428090;28;20222;-78
2024/01/11 19:45:52;;;;;;;0.60;0.60;;;-0.20;92.00;;;;;;10436536;28;20197;-77
2024/01/11 19:50:56;;;;;;;0.60;0.60;;;-0.10;91.50;;;;;;10453391;28;20225;-77
2024/01/11 19:55:58;;;;;;;0.53;0.53;;;-0.20;91.40;;;;;;10428103;28;20198;-77
2024/01/11 20:01:01;;;;;;;0.50;0.50;;;-0.20;91.60;;;;;;10453469;28;20220;-77
2024/01/11 20:06:06;;;;;;;0.60;0.60;;;-0.10;91.60;;;;;;10447845;28;20264;-78
2024/01/11 20:11:09;;;;;;;0.50;0.50;;;-0.10;91.60;;;;;;10431987;28;20218;-79
2024/01/11 20:16:11;;;;;;;0.40;0.40;;;-0.10;91.40;;;;;;10452632;28;20205;-79
2024/01/11 20:21:15;;;;;;;0.70;0.70;;;-0.20;91.40;;;;;;10414986;28;20283;-77
2024/01/11 20:26:18;;;;;;;0.60;0.60;;;-0.20;91.40;;;;;;10429433;28;20193;-79
2024/01/11 20:31:21;;;;;;;0.57;0.57;;;-0.20;91.60;;;;;;10421190;28;20322;-78
2024/01/11 20:36:26;;;;;;;0.50;0.50;;;-0.20;91.70;;;;;;10417265;28;20248;-76
2024/01/11 20:41:28;;;;;;;0.60;0.60;;;-0.20;91.60;;;;;;10421298;28;20213;-80
2024/01/11 20:46:31;;;;;;;0.60;0.60;;;-0.20;91.40;;;;;;10433099;28;20209;-79
2024/01/11 20:51:34;;;;;;;0.70;0.70;;;-0.20;91.90;;;;;;10442983;28;20214;-78
2024/01/11 20:56:42;;;;;;;0.40;0.40;;;-0.20;91.60;;;;;;10426533;28;20194;-78
2024/01/11 21:01:45;;;;;;;0.50;0.50;;;-0.20;91.90;;;;;;10440437;28;20256;-78
2024/01/11 21:06:49;;;;;;;0.50;0.50;;;-0.10;91.50;;;;;;10399788;28;20669;-80
2024/01/11 21:11:51;;;;;;;0.50;0.50;;;-0.10;91.60;;;;;;10428811;28;21942;-77
2024/01/11 21:16:54;;;;;;;0.50;0.50;;;-0.10;91.40;;;;;;10443093;28;20197;-78
2024/01/11 21:21:57;;;;;;;0.50;0.50;;;-0.10;91.10;;;;;;10436491;28;20291;-79
2024/01/11 21:27:00;;;;;;;0.60;0.60;;;-0.10;91.40;;;;;;10427025;28;20208;-79
2024/01/11 21:32:02;;;;;;;0.40;0.40;;;-0.10;91.40;;;;;;10437124;28;20230;-79
2024/01/11 21:37:06;;;;;;;0.40;0.40;;;-0.10;91.50;;;;;;10431080;28;20212;-79
2024/01/11 21:42:08;;;;;;;0.40;0.40;;;-0.20;91.50;;;;;;10452340;28;20563;-80
2024/01/11 21:47:11;;;;;;;0.40;0.40;;;-0.20;91.50;;;;;;10434238;28;20200;-80
2024/01/11 21:52:15;;;;;;;0.50;0.50;;;-0.20;91.40;;;;;;10458784;28;20779;-79
2024/01/11 21:57:17;;;;;;;0.40;0.40;;;-0.20;91.30;;;;;;10448644;28;20189;-80
2024/01/11 22:02:20;;;;;;;0.33;0.33;;;-0.20;91.50;;;;;;10450523;28;20275;-80
2024/01/11 22:07:23;;;;;;;0.40;0.40;;;-0.20;91.30;;;;;;10442122;28;20209;-79
2024/01/11 22:12:26;;;;;;;0.50;0.50;;;-0.30;91.40;;;;;;10466255;28;20220;-80
2024/01/11 22:17:28;;;;;;;0.40;0.40;;;-0.30;91.40;;;;;;10480658;28;20205;-78
2024/01/11 22:22:32;;;;;;;0.40;0.40;;;-0.30;91.40;;;;;;10441367;28;20217;-80
2024/01/11 22:27:34;;;;;;;0.40;0.40;;;-0.40;91.60;;;;;;10432259;28;20198;-78
2024/01/11 22:32:37;;;;;;;0.40;0.40;;;-0.30;91.40;;;;;;10449420;28;20222;-79
2024/01/11 22:37:41;;;;;;;0.40;0.40;;;-0.40;91.40;;;;;;10414591;28;20198;-80
2024/01/11 22:42:46;;;;;;;0.40;0.40;;;-0.40;91.50;;;;;;10432111;28;20381;-78
2024/01/11 22:47:48;;;;;;;0.30;0.30;;;-0.40;91.50;;;;;;10446726;28;20252;-80
2024/01/11 22:52:52;;;;;;;0.50;0.50;;;-0.40;91.50;;;;;;10436679;28;20322;-78
2024/01/11 22:57:54;;;;;;;0.40;0.40;;;-0.40;91.50;;;;;;10445010;28;20213;-80
2024/01/11 23:02:57;;;;;;;0.60;0.60;;;-0.40;91.50;;;;;;10463750;28;20213;-80
2024/01/11 23:08:00;;;;;;;0.50;0.50;;;-0.50;91.50;;;;;;10451224;28;20247;-78
2024/01/11 23:13:04;;;;;;;0.50;0.50;;;-0.50;91.40;;;;;;10437828;28;20267;-79
2024/01/11 23:18:08;;;;;;;0.50;0.50;;;-0.50;91.30;;;;;;10476443;28;20275;-81
2024/01/11 23:23:12;;;;;;;0.50;0.50;;;-0.50;91.50;;;;;;10461832;28;20582;-78
2024/01/11 23:28:14;;;;;;;0.40;0.40;;;-0.50;91.40;;;;;;10441408;28;20221;-79
2024/01/11 23:33:16;;;;;;;0.40;0.40;;;-0.50;91.80;;;;;;10439785;28;20245;-79
2024/01/11 23:38:20;;;;;;;0.43;0.43;;;-0.50;91.50;;;;;;10444104;28;20209;-79
2024/01/11 23:43:22;;;;;;;0.40;0.40;;;-0.50;91.40;;;;;;10455180;28;20205;-79
2024/01/11 23:48:25;;;;;;;0.40;0.40;;;-0.50;91.30;;;;;;10434505;28;20703;-80
2024/01/11 23:53:28;;;;;;;0.50;0.50;;;-0.50;91.20;;;;;;10443096;28;20287;-80
2024/01/11 23:58:31;;;;;;;0.50;0.50;;;-0.60;91.00;;;;;;10435091;28;20218;-78
